Chattaroy, WA (99003)

7:24 PM PST on December 18, 2014 (GMT -0800)
Deer Park | Change Station
CLOSE
Current Station
Airport
Location: Deer Park,
Elevation: 2205 ft
Nearby Weather Stations
Active Advisory: Air Stagnation Advisory

Elev 2205 ft 47.97 °N, 117.42 °W | Updated 31 minutes ago

Overcast
Overcast
36 °F
Feels Like 36 °F
N
0
Wind Variable Wind from North

Today
High -- | Low -- °F
--% Chance of Precip.
Yesterday
High -- | Low -- °F
Precip. -- in
7:34 AM 3:57 PM
Waning Crescent, 10% visible
Pressure 30.01 in
Visibility 7.0 miles
Clouds Overcast 3400 ft
Dew Point 35 °F
Humidity 97%
Rainfall 0.01 in
Snow Depth Not available.
UV 0 out of 12
Pollen .10 out of 12
Air Quality Not available.
Flu Activity Not available.
METAR KDEW 190253Z AUTO 00000KT 7SM OVC034 02/02 A2996 RMK AO2 SLP163 T00220017 56006

More Conditions Fewer Conditions

Pressure 30.01 in
Visibility 7.0 miles
Clouds Overcast 3400 ft
Dew Point 35 °F
Humidity 97%
Rainfall 0.01 in
Snow Depth Not available.
UV 0 out of 12
Pollen .10 out of 12
Air Quality Not available.
Flu Activity Not available.
METAR KDEW 190253Z AUTO 00000KT 7SM OVC034 02/02 A2996 RMK AO2 SLP163 T00220017 56006

More Conditions Fewer Conditions

10-Day Weather Forecast

Almanac

Astronomy

Dec. 18, 2014 Rise Set
Actual Time
Civil Twilight
Nautical Twilight
Astronomical Twilight
Moon
Length of Visible Light
Length of Day
Tomorrow will be .
, % of the Moon is Illuminated

Today's Extremes

State Highs State Lows

Community

WunderPhotos

Upload Photos

1,778,987 photos uploaded!

WunderBlogs® & News

Nearby

Air Quality

  Air Quality AQ Index Pollutant
Not available.

Snow Depth

Station Depth Elevation

Earthquake Activity

City Distance Mag. Time & Date
Minimum magnitude displayed is 2.5.

Coastal Water Temperatures

Place Temperature

Nearby Weather Stations